Aviation Digital Data Service (ADDS)

Output produced by METARs form (0430 UTC 24 January 2019)
found at http://www.aviationweather.gov/metar/data/
 
Forecast for: RKTU (JONGJU (KAFB-AR , KR)
Text: TAF RKTU 232300Z 2400/2506 33006KT 9999 SCT030 TX08/2406Z TNM10/2421Z
Forecast period: 0000 UTC 24 January 2019 to 0600 UTC 25 January 2019
Forecast type: FROM: standard forecast or significant change
Winds: from the NNW (330 degrees) at 7 MPH (6 knots; 3.1 m/s)
Visibility: 6 or more miles 10+ km)
Ceiling: at least 12,000 feet AGL
Clouds: scattered clouds at 3000 feet AGL
Weather: no significant weather forecast for this period